sensor_id;sensor_type;location;lat;lon;timestamp;P1;durP1;ratioP1;P2;durP2;ratioP2
7783;SDS011;19359;51.402;6.778;2023-01-01T00:01:04;9.25;;;5.05;;
7783;SDS011;19359;51.402;6.778;2023-01-01T00:03:32;18.00;;;6.15;;
7783;SDS011;19359;51.402;6.778;2023-01-01T00:05:59;15.05;;;5.65;;
7783;SDS011;19359;51.402;6.778;2023-01-01T00:08:30;14.07;;;5.28;;
7783;SDS011;19359;51.402;6.778;2023-01-01T00:11:00;6.38;;;4.00;;
7783;SDS011;19359;51.402;6.778;2023-01-01T00:13:26;9.18;;;4.22;;
7783;SDS011;19359;51.402;6.778;2023-01-01T00:15:53;9.43;;;4.20;;
7783;SDS011;19359;51.402;6.778;2023-01-01T00:18:19;5.22;;;3.10;;
7783;SDS011;19359;51.402;6.778;2023-01-01T00:20:46;6.22;;;3.05;;
7783;SDS011;19359;51.402;6.778;2023-01-01T00:23:13;8.65;;;4.18;;
7783;SDS011;19359;51.402;6.778;2023-01-01T00:25:39;6.97;;;3.63;;
7783;SDS011;19359;51.402;6.778;2023-01-01T00:28:08;4.63;;;3.38;;
7783;SDS011;19359;51.402;6.778;2023-01-01T00:30:37;8.15;;;3.85;;
7783;SDS011;19359;51.402;6.778;2023-01-01T00:33:05;8.63;;;3.75;;
7783;SDS011;19359;51.402;6.778;2023-01-01T00:35:32;6.82;;;4.22;;
7783;SDS011;19359;51.402;6.778;2023-01-01T00:37:59;12.15;;;4.20;;
7783;SDS011;19359;51.402;6.778;2023-01-01T00:40:25;9.90;;;4.45;;
7783;SDS011;19359;51.402;6.778;2023-01-01T00:42:52;15.88;;;4.53;;
7783;SDS011;19359;51.402;6.778;2023-01-01T00:45:20;20.05;;;4.68;;
7783;SDS011;19359;51.402;6.778;2023-01-01T00:47:47;7.53;;;3.95;;
7783;SDS011;19359;51.402;6.778;2023-01-01T00:50:14;4.25;;;3.85;;
7783;SDS011;19359;51.402;6.778;2023-01-01T00:52:41;15.75;;;4.55;;
7783;SDS011;19359;51.402;6.778;2023-01-01T00:55:08;7.97;;;3.55;;
7783;SDS011;19359;51.402;6.778;2023-01-01T00:57:35;10.00;;;3.33;;
7783;SDS011;19359;51.402;6.778;2023-01-01T01:00:02;3.90;;;2.75;;
7783;SDS011;19359;51.402;6.778;2023-01-01T01:02:31;5.72;;;3.25;;
7783;SDS011;19359;51.402;6.778;2023-01-01T01:04:57;8.13;;;2.85;;
7783;SDS011;19359;51.402;6.778;2023-01-01T01:07:25;6.28;;;2.50;;
7783;SDS011;19359;51.402;6.778;2023-01-01T01:09:51;3.33;;;3.08;;
7783;SDS011;19359;51.402;6.778;2023-01-01T01:12:18;4.85;;;2.08;;
7783;SDS011;19359;51.402;6.778;2023-01-01T01:14:45;5.60;;;2.35;;
7783;SDS011;19359;51.402;6.778;2023-01-01T01:17:12;5.18;;;1.45;;
7783;SDS011;19359;51.402;6.778;2023-01-01T01:19:40;4.93;;;1.83;;
7783;SDS011;19359;51.402;6.778;2023-01-01T01:22:07;1.30;;;0.63;;
7783;SDS011;19359;51.402;6.778;2023-01-01T01:24:33;2.28;;;1.10;;
7783;SDS011;19359;51.402;6.778;2023-01-01T01:27:00;3.88;;;1.35;;
7783;SDS011;19359;51.402;6.778;2023-01-01T01:29:27;6.47;;;1.67;;
7783;SDS011;19359;51.402;6.778;2023-01-01T01:31:53;7.60;;;0.90;;
7783;SDS011;19359;51.402;6.778;2023-01-01T01:34:20;2.55;;;1.10;;
7783;SDS011;19359;51.402;6.778;2023-01-01T01:36:49;7.25;;;0.95;;
7783;SDS011;19359;51.402;6.778;2023-01-01T01:39:17;3.47;;;1.27;;
7783;SDS011;19359;51.402;6.778;2023-01-01T01:41:43;2.75;;;1.20;;
7783;SDS011;19359;51.402;6.778;2023-01-01T01:47:26;6.03;;;1.92;;
7783;SDS011;19359;51.402;6.778;2023-01-01T01:49:56;1.35;;;1.13;;
7783;SDS011;19359;51.402;6.778;2023-01-01T01:52:30;4.95;;;1.10;;
7783;SDS011;19359;51.402;6.778;2023-01-01T01:54:59;5.32;;;1.25;;
7783;SDS011;19359;51.402;6.778;2023-01-01T01:57:27;7.47;;;1.02;;
7783;SDS011;19359;51.402;6.778;2023-01-01T01:59:55;9.00;;;0.90;;
7783;SDS011;19359;51.402;6.778;2023-01-01T02:02:26;2.40;;;1.02;;
7783;SDS011;19359;51.402;6.778;2023-01-01T02:04:58;3.03;;;0.75;;
7783;SDS011;19359;51.402;6.778;2023-01-01T02:07:25;3.80;;;1.00;;
7783;SDS011;19359;51.402;6.778;2023-01-01T02:09:55;2.50;;;1.00;;
7783;SDS011;19359;51.402;6.778;2023-01-01T02:12:22;4.65;;;0.70;;
7783;SDS011;19359;51.402;6.778;2023-01-01T02:14:49;3.80;;;0.70;;
7783;SDS011;19359;51.402;6.778;2023-01-01T02:17:17;3.58;;;1.10;;
7783;SDS011;19359;51.402;6.778;2023-01-01T02:19:54;6.22;;;1.60;;
7783;SDS011;19359;51.402;6.778;2023-01-01T02:25:33;2.15;;;0.80;;
7783;SDS011;19359;51.402;6.778;2023-01-01T02:28:13;2.25;;;0.70;;
7783;SDS011;19359;51.402;6.778;2023-01-01T02:30:48;1.33;;;1.08;;
7783;SDS011;19359;51.402;6.778;2023-01-01T02:33:17;2.33;;;0.98;;
7783;SDS011;19359;51.402;6.778;2023-01-01T02:35:47;2.28;;;0.82;;
7783;SDS011;19359;51.402;6.778;2023-01-01T02:38:18;3.08;;;0.80;;
7783;SDS011;19359;51.402;6.778;2023-01-01T02:40:50;4.40;;;0.98;;
7783;SDS011;19359;51.402;6.778;2023-01-01T02:43:20;1.65;;;0.90;;
7783;SDS011;19359;51.402;6.778;2023-01-01T02:45:49;0.82;;;0.57;;
7783;SDS011;19359;51.402;6.778;2023-01-01T02:48:35;2.70;;;0.93;;
7783;SDS011;19359;51.402;6.778;2023-01-01T02:51:08;2.85;;;0.60;;
7783;SDS011;19359;51.402;6.778;2023-01-01T02:53:42;3.40;;;0.80;;
7783;SDS011;19359;51.402;6.778;2023-01-01T02:56:14;3.03;;;0.68;;
7783;SDS011;19359;51.402;6.778;2023-01-01T02:58:49;5.18;;;0.80;;
7783;SDS011;19359;51.402;6.778;2023-01-01T03:01:50;1.95;;;0.73;;
7783;SDS011;19359;51.402;6.778;2023-01-01T03:04:24;1.77;;;0.75;;
7783;SDS011;19359;51.402;6.778;2023-01-01T03:07:00;3.85;;;0.80;;
7783;SDS011;19359;51.402;6.778;2023-01-01T03:09:34;2.58;;;0.68;;
7783;SDS011;19359;51.402;6.778;2023-01-01T03:12:08;2.75;;;0.65;;
7783;SDS011;19359;51.402;6.778;2023-01-01T03:14:45;2.40;;;0.60;;
7783;SDS011;19359;51.402;6.778;2023-01-01T03:17:19;7.13;;;0.80;;
7783;SDS011;19359;51.402;6.778;2023-01-01T03:19:50;4.32;;;0.57;;
7783;SDS011;19359;51.402;6.778;2023-01-01T03:22:19;3.90;;;0.80;;
7783;SDS011;19359;51.402;6.778;2023-01-01T03:24:50;1.38;;;0.60;;
7783;SDS011;19359;51.402;6.778;2023-01-01T03:27:19;1.80;;;0.50;;
7783;SDS011;19359;51.402;6.778;2023-01-01T03:29:50;1.23;;;0.63;;
7783;SDS011;19359;51.402;6.778;2023-01-01T03:32:21;1.40;;;0.60;;
7783;SDS011;19359;51.402;6.778;2023-01-01T03:35:13;3.42;;;0.60;;
7783;SDS011;19359;51.402;6.778;2023-01-01T03:37:42;0.98;;;0.73;;
7783;SDS011;19359;51.402;6.778;2023-01-01T03:40:12;3.42;;;0.70;;
7783;SDS011;19359;51.402;6.778;2023-01-01T03:42:40;4.05;;;0.95;;
7783;SDS011;19359;51.402;6.778;2023-01-01T03:45:15;5.25;;;0.93;;
7783;SDS011;19359;51.402;6.778;2023-01-01T03:47:46;1.75;;;0.80;;
7783;SDS011;19359;51.402;6.778;2023-01-01T03:50:13;0.73;;;0.73;;
7783;SDS011;19359;51.402;6.778;2023-01-01T03:52:42;1.08;;;0.93;;
7783;SDS011;19359;51.402;6.778;2023-01-01T03:55:18;6.25;;;0.95;;
7783;SDS011;19359;51.402;6.778;2023-01-01T03:57:54;5.25;;;1.05;;
7783;SDS011;19359;51.402;6.778;2023-01-01T04:00:26;3.75;;;1.10;;
7783;SDS011;19359;51.402;6.778;2023-01-01T04:03:01;1.75;;;0.88;;
7783;SDS011;19359;51.402;6.778;2023-01-01T04:05:31;2.00;;;0.70;;
7783;SDS011;19359;51.402;6.778;2023-01-01T04:08:02;3.88;;;1.25;;
7783;SDS011;19359;51.402;6.778;2023-01-01T04:10:30;4.28;;;0.95;;
7783;SDS011;19359;51.402;6.778;2023-01-01T04:13:01;1.92;;;0.85;;
7783;SDS011;19359;51.402;6.778;2023-01-01T04:15:29;2.47;;;0.80;;
7783;SDS011;19359;51.402;6.778;2023-01-01T04:17:57;2.55;;;0.57;;
7783;SDS011;19359;51.402;6.778;2023-01-01T04:20:25;5.40;;;0.95;;
7783;SDS011;19359;51.402;6.778;2023-01-01T04:22:54;5.43;;;0.80;;
7783;SDS011;19359;51.402;6.778;2023-01-01T04:25:21;3.60;;;0.60;;
7783;SDS011;19359;51.402;6.778;2023-01-01T04:27:47;3.67;;;0.63;;
7783;SDS011;19359;51.402;6.778;2023-01-01T04:30:14;3.72;;;1.15;;
7783;SDS011;19359;51.402;6.778;2023-01-01T04:32:41;9.65;;;1.17;;
7783;SDS011;19359;51.402;6.778;2023-01-01T04:35:09;3.65;;;0.70;;
7783;SDS011;19359;51.402;6.778;2023-01-01T04:37:38;1.10;;;0.52;;
7783;SDS011;19359;51.402;6.778;2023-01-01T04:40:06;3.92;;;0.80;;
7783;SDS011;19359;51.402;6.778;2023-01-01T04:42:33;3.47;;;0.80;;
7783;SDS011;19359;51.402;6.778;2023-01-01T04:45:00;3.40;;;0.65;;
7783;SDS011;19359;51.402;6.778;2023-01-01T04:47:27;1.58;;;0.70;;
7783;SDS011;19359;51.402;6.778;2023-01-01T04:49:54;1.15;;;0.65;;
7783;SDS011;19359;51.402;6.778;2023-01-01T04:52:21;3.80;;;0.57;;
7783;SDS011;19359;51.402;6.778;2023-01-01T04:54:49;1.33;;;0.73;;
7783;SDS011;19359;51.402;6.778;2023-01-01T04:57:16;1.17;;;0.60;;
7783;SDS011;19359;51.402;6.778;2023-01-01T04:59:43;1.73;;;0.45;;
7783;SDS011;19359;51.402;6.778;2023-01-01T05:02:09;4.85;;;0.80;;
7783;SDS011;19359;51.402;6.778;2023-01-01T05:04:36;12.38;;;1.23;;
7783;SDS011;19359;51.402;6.778;2023-01-01T05:07:03;1.30;;;0.90;;
7783;SDS011;19359;51.402;6.778;2023-01-01T05:09:29;6.68;;;0.98;;
7783;SDS011;19359;51.402;6.778;2023-01-01T05:11:57;1.88;;;0.70;;
7783;SDS011;19359;51.402;6.778;2023-01-01T05:14:24;2.83;;;0.70;;
7783;SDS011;19359;51.402;6.778;2023-01-01T05:16:51;10.20;;;1.13;;
7783;SDS011;19359;51.402;6.778;2023-01-01T05:19:18;1.40;;;0.60;;
7783;SDS011;19359;51.402;6.778;2023-01-01T05:21:44;2.95;;;0.85;;
7783;SDS011;19359;51.402;6.778;2023-01-01T05:24:11;3.45;;;0.80;;
7783;SDS011;19359;51.402;6.778;2023-01-01T05:26:39;2.50;;;0.60;;
7783;SDS011;19359;51.402;6.778;2023-01-01T05:29:09;0.60;;;0.60;;
7783;SDS011;19359;51.402;6.778;2023-01-01T05:31:36;4.75;;;0.73;;
7783;SDS011;19359;51.402;6.778;2023-01-01T05:34:03;6.13;;;0.95;;
7783;SDS011;19359;51.402;6.778;2023-01-01T05:36:31;5.18;;;0.77;;
7783;SDS011;19359;51.402;6.778;2023-01-01T05:38:59;1.83;;;0.60;;
7783;SDS011;19359;51.402;6.778;2023-01-01T05:41:26;3.42;;;0.90;;
7783;SDS011;19359;51.402;6.778;2023-01-01T05:43:55;4.78;;;0.57;;
7783;SDS011;19359;51.402;6.778;2023-01-01T05:46:23;4.05;;;0.50;;
7783;SDS011;19359;51.402;6.778;2023-01-01T05:48:51;6.63;;;0.88;;
7783;SDS011;19359;51.402;6.778;2023-01-01T05:51:19;7.68;;;0.65;;
7783;SDS011;19359;51.402;6.778;2023-01-01T05:53:47;1.05;;;0.77;;
7783;SDS011;19359;51.402;6.778;2023-01-01T05:56:15;2.28;;;0.65;;
7783;SDS011;19359;51.402;6.778;2023-01-01T05:58:42;2.63;;;0.60;;
7783;SDS011;19359;51.402;6.778;2023-01-01T06:01:10;1.67;;;0.63;;
7783;SDS011;19359;51.402;6.778;2023-01-01T06:03:41;1.10;;;0.60;;
7783;SDS011;19359;51.402;6.778;2023-01-01T06:06:09;2.90;;;0.80;;
7783;SDS011;19359;51.402;6.778;2023-01-01T06:08:37;2.15;;;0.80;;
7783;SDS011;19359;51.402;6.778;2023-01-01T06:11:04;4.68;;;0.73;;
7783;SDS011;19359;51.402;6.778;2023-01-01T06:13:33;2.63;;;0.75;;
7783;SDS011;19359;51.402;6.778;2023-01-01T06:16:00;3.90;;;0.70;;
7783;SDS011;19359;51.402;6.778;2023-01-01T06:18:28;10.77;;;0.85;;
7783;SDS011;19359;51.402;6.778;2023-01-01T06:21:03;2.33;;;0.68;;
7783;SDS011;19359;51.402;6.778;2023-01-01T06:23:31;5.47;;;0.63;;
7783;SDS011;19359;51.402;6.778;2023-01-01T06:26:02;1.08;;;0.82;;
7783;SDS011;19359;51.402;6.778;2023-01-01T06:28:30;2.35;;;1.50;;
7783;SDS011;19359;51.402;6.778;2023-01-01T06:30:58;4.53;;;0.77;;
7783;SDS011;19359;51.402;6.778;2023-01-01T06:33:25;2.63;;;0.90;;
7783;SDS011;19359;51.402;6.778;2023-01-01T06:35:51;7.50;;;0.80;;
7783;SDS011;19359;51.402;6.778;2023-01-01T06:38:19;3.55;;;0.98;;
7783;SDS011;19359;51.402;6.778;2023-01-01T06:40:53;8.85;;;0.82;;
7783;SDS011;19359;51.402;6.778;2023-01-01T06:43:21;3.17;;;1.20;;
7783;SDS011;19359;51.402;6.778;2023-01-01T06:45:47;5.03;;;0.88;;
7783;SDS011;19359;51.402;6.778;2023-01-01T06:48:23;3.70;;;1.15;;
7783;SDS011;19359;51.402;6.778;2023-01-01T06:50:50;4.57;;;1.17;;
7783;SDS011;19359;51.402;6.778;2023-01-01T06:53:16;3.22;;;1.10;;
7783;SDS011;19359;51.402;6.778;2023-01-01T06:55:48;7.78;;;1.08;;
7783;SDS011;19359;51.402;6.778;2023-01-01T06:58:15;1.50;;;0.70;;
7783;SDS011;19359;51.402;6.778;2023-01-01T07:00:41;9.38;;;1.95;;
7783;SDS011;19359;51.402;6.778;2023-01-01T07:03:08;4.97;;;1.30;;
7783;SDS011;19359;51.402;6.778;2023-01-01T07:05:35;7.82;;;1.13;;
7783;SDS011;19359;51.402;6.778;2023-01-01T07:08:02;4.25;;;0.88;;
7783;SDS011;19359;51.402;6.778;2023-01-01T07:10:29;2.60;;;0.88;;
7783;SDS011;19359;51.402;6.778;2023-01-01T07:12:57;4.85;;;0.80;;
7783;SDS011;19359;51.402;6.778;2023-01-01T07:15:24;3.58;;;0.63;;
7783;SDS011;19359;51.402;6.778;2023-01-01T07:17:51;4.05;;;0.65;;
7783;SDS011;19359;51.402;6.778;2023-01-01T07:20:18;1.73;;;0.75;;
7783;SDS011;19359;51.402;6.778;2023-01-01T07:22:45;6.45;;;0.88;;
7783;SDS011;19359;51.402;6.778;2023-01-01T07:25:13;4.57;;;0.73;;
7783;SDS011;19359;51.402;6.778;2023-01-01T07:27:40;7.55;;;0.73;;
7783;SDS011;19359;51.402;6.778;2023-01-01T07:30:09;0.93;;;0.68;;
7783;SDS011;19359;51.402;6.778;2023-01-01T07:32:36;3.17;;;0.75;;
7783;SDS011;19359;51.402;6.778;2023-01-01T07:35:03;4.07;;;1.42;;
7783;SDS011;19359;51.402;6.778;2023-01-01T07:37:30;2.80;;;0.85;;
7783;SDS011;19359;51.402;6.778;2023-01-01T07:39:57;2.05;;;0.98;;
7783;SDS011;19359;51.402;6.778;2023-01-01T07:42:23;5.07;;;1.30;;
7783;SDS011;19359;51.402;6.778;2023-01-01T07:44:50;3.25;;;0.95;;
7783;SDS011;19359;51.402;6.778;2023-01-01T07:47:20;10.43;;;1.25;;
7783;SDS011;19359;51.402;6.778;2023-01-01T07:49:47;3.55;;;1.23;;
7783;SDS011;19359;51.402;6.778;2023-01-01T07:52:15;7.85;;;2.05;;
7783;SDS011;19359;51.402;6.778;2023-01-01T07:54:42;1.58;;;0.98;;
7783;SDS011;19359;51.402;6.778;2023-01-01T07:57:09;3.95;;;0.93;;
7783;SDS011;19359;51.402;6.778;2023-01-01T07:59:35;3.50;;;0.75;;
7783;SDS011;19359;51.402;6.778;2023-01-01T08:02:02;2.35;;;0.85;;
7783;SDS011;19359;51.402;6.778;2023-01-01T08:04:30;4.18;;;0.93;;
7783;SDS011;19359;51.402;6.778;2023-01-01T08:06:57;3.22;;;0.77;;
7783;SDS011;19359;51.402;6.778;2023-01-01T08:09:24;2.08;;;0.95;;
7783;SDS011;19359;51.402;6.778;2023-01-01T08:11:51;1.95;;;1.10;;
7783;SDS011;19359;51.402;6.778;2023-01-01T08:14:17;5.97;;;0.85;;
7783;SDS011;19359;51.402;6.778;2023-01-01T08:16:44;7.20;;;1.20;;
7783;SDS011;19359;51.402;6.778;2023-01-01T08:19:11;3.25;;;1.05;;
7783;SDS011;19359;51.402;6.778;2023-01-01T08:21:39;1.63;;;0.93;;
7783;SDS011;19359;51.402;6.778;2023-01-01T08:24:06;6.32;;;1.10;;
7783;SDS011;19359;51.402;6.778;2023-01-01T08:26:33;4.43;;;0.95;;
7783;SDS011;19359;51.402;6.778;2023-01-01T08:29:02;1.75;;;0.93;;
7783;SDS011;19359;51.402;6.778;2023-01-01T08:31:30;4.03;;;1.10;;
7783;SDS011;19359;51.402;6.778;2023-01-01T08:33:57;4.32;;;1.00;;
7783;SDS011;19359;51.402;6.778;2023-01-01T08:36:24;4.88;;;1.02;;
7783;SDS011;19359;51.402;6.778;2023-01-01T08:38:52;4.28;;;0.90;;
7783;SDS011;19359;51.402;6.778;2023-01-01T08:41:19;3.90;;;0.90;;
7783;SDS011;19359;51.402;6.778;2023-01-01T08:43:45;4.35;;;0.93;;
7783;SDS011;19359;51.402;6.778;2023-01-01T08:46:12;3.92;;;1.00;;
7783;SDS011;19359;51.402;6.778;2023-01-01T08:48:39;8.07;;;1.33;;
7783;SDS011;19359;51.402;6.778;2023-01-01T08:51:06;1.67;;;0.95;;
7783;SDS011;19359;51.402;6.778;2023-01-01T08:53:32;3.75;;;0.85;;
7783;SDS011;19359;51.402;6.778;2023-01-01T08:56:01;1.65;;;1.27;;
7783;SDS011;19359;51.402;6.778;2023-01-01T08:58:29;4.03;;;0.90;;
7783;SDS011;19359;51.402;6.778;2023-01-01T09:00:56;5.18;;;0.98;;
7783;SDS011;19359;51.402;6.778;2023-01-01T09:03:23;2.15;;;1.08;;
7783;SDS011;19359;51.402;6.778;2023-01-01T09:05:50;4.55;;;1.10;;
7783;SDS011;19359;51.402;6.778;2023-01-01T09:08:17;2.05;;;0.77;;
7783;SDS011;19359;51.402;6.778;2023-01-01T09:10:44;3.92;;;1.17;;
7783;SDS011;19359;51.402;6.778;2023-01-01T09:13:12;3.90;;;1.27;;
7783;SDS011;19359;51.402;6.778;2023-01-01T09:15:42;4.32;;;1.27;;
7783;SDS011;19359;51.402;6.778;2023-01-01T09:18:09;8.10;;;1.10;;
7783;SDS011;19359;51.402;6.778;2023-01-01T09:20:35;4.50;;;1.20;;
7783;SDS011;19359;51.402;6.778;2023-01-01T09:23:03;5.53;;;0.98;;
7783;SDS011;19359;51.402;6.778;2023-01-01T09:25:31;4.90;;;0.98;;
7783;SDS011;19359;51.402;6.778;2023-01-01T09:27:58;3.00;;;1.33;;
7783;SDS011;19359;51.402;6.778;2023-01-01T09:30:27;3.35;;;0.93;;
7783;SDS011;19359;51.402;6.778;2023-01-01T09:32:53;3.13;;;1.77;;
7783;SDS011;19359;51.402;6.778;2023-01-01T09:35:20;5.28;;;1.02;;
7783;SDS011;19359;51.402;6.778;2023-01-01T09:37:47;7.20;;;1.25;;
7783;SDS011;19359;51.402;6.778;2023-01-01T09:40:20;5.15;;;1.10;;
7783;SDS011;19359;51.402;6.778;2023-01-01T09:42:52;6.65;;;1.10;;
7783;SDS011;19359;51.402;6.778;2023-01-01T09:45:30;3.78;;;1.27;;
7783;SDS011;19359;51.402;6.778;2023-01-01T09:48:02;2.88;;;0.70;;
7783;SDS011;19359;51.402;6.778;2023-01-01T09:50:33;4.07;;;1.20;;
7783;SDS011;19359;51.402;6.778;2023-01-01T09:53:03;8.68;;;1.02;;
7783;SDS011;19359;51.402;6.778;2023-01-01T09:55:37;5.15;;;1.55;;
7783;SDS011;19359;51.402;6.778;2023-01-01T09:58:11;1.77;;;1.15;;
7783;SDS011;19359;51.402;6.778;2023-01-01T10:00:41;2.50;;;0.80;;
7783;SDS011;19359;51.402;6.778;2023-01-01T10:03:17;5.97;;;1.23;;
7783;SDS011;19359;51.402;6.778;2023-01-01T10:05:59;4.30;;;0.77;;
7783;SDS011;19359;51.402;6.778;2023-01-01T10:08:40;3.50;;;1.10;;
7783;SDS011;19359;51.402;6.778;2023-01-01T10:11:15;4.20;;;1.08;;
7783;SDS011;19359;51.402;6.778;2023-01-01T10:13:48;5.28;;;1.20;;
7783;SDS011;19359;51.402;6.778;2023-01-01T10:16:20;5.95;;;1.40;;
7783;SDS011;19359;51.402;6.778;2023-01-01T10:18:54;4.95;;;1.20;;
7783;SDS011;19359;51.402;6.778;2023-01-01T10:21:26;3.47;;;1.33;;
7783;SDS011;19359;51.402;6.778;2023-01-01T10:23:58;2.85;;;1.08;;
7783;SDS011;19359;51.402;6.778;2023-01-01T10:26:27;2.88;;;1.15;;
7783;SDS011;19359;51.402;6.778;2023-01-01T10:28:56;5.75;;;1.40;;
7783;SDS011;19359;51.402;6.778;2023-01-01T10:31:29;6.65;;;1.13;;
7783;SDS011;19359;51.402;6.778;2023-01-01T10:34:00;5.18;;;1.10;;
7783;SDS011;19359;51.402;6.778;2023-01-01T10:36:32;3.75;;;1.15;;
7783;SDS011;19359;51.402;6.778;2023-01-01T10:38:58;1.02;;;0.68;;
7783;SDS011;19359;51.402;6.778;2023-01-01T10:41:25;1.85;;;1.02;;
7783;SDS011;19359;51.402;6.778;2023-01-01T10:43:52;4.88;;;1.23;;
7783;SDS011;19359;51.402;6.778;2023-01-01T10:46:20;4.25;;;1.73;;
7783;SDS011;19359;51.402;6.778;2023-01-01T10:49:03;4.50;;;1.05;;
7783;SDS011;19359;51.402;6.778;2023-01-01T10:51:31;2.85;;;1.00;;
7783;SDS011;19359;51.402;6.778;2023-01-01T10:54:01;3.35;;;1.35;;
7783;SDS011;19359;51.402;6.778;2023-01-01T10:56:37;3.13;;;0.88;;
7783;SDS011;19359;51.402;6.778;2023-01-01T10:59:27;4.63;;;1.33;;
7783;SDS011;19359;51.402;6.778;2023-01-01T11:02:16;1.85;;;1.23;;
7783;SDS011;19359;51.402;6.778;2023-01-01T11:04:44;3.40;;;0.85;;
7783;SDS011;19359;51.402;6.778;2023-01-01T11:07:18;3.10;;;1.02;;
7783;SDS011;19359;51.402;6.778;2023-01-01T11:09:51;2.22;;;0.93;;
7783;SDS011;19359;51.402;6.778;2023-01-01T11:12:23;1.30;;;0.70;;
7783;SDS011;19359;51.402;6.778;2023-01-01T11:14:56;4.32;;;1.38;;
7783;SDS011;19359;51.402;6.778;2023-01-01T11:17:24;4.55;;;1.02;;
7783;SDS011;19359;51.402;6.778;2023-01-01T11:19:52;4.22;;;0.98;;
7783;SDS011;19359;51.402;6.778;2023-01-01T11:22:34;3.05;;;0.80;;
7783;SDS011;19359;51.402;6.778;2023-01-01T11:25:09;3.92;;;1.23;;
7783;SDS011;19359;51.402;6.778;2023-01-01T11:27:43;8.65;;;0.90;;
7783;SDS011;19359;51.402;6.778;2023-01-01T11:30:18;3.80;;;1.00;;
7783;SDS011;19359;51.402;6.778;2023-01-01T11:32:48;1.20;;;0.90;;
7783;SDS011;19359;51.402;6.778;2023-01-01T11:35:17;4.75;;;1.23;;
7783;SDS011;19359;51.402;6.778;2023-01-01T11:37:47;3.75;;;0.70;;
7783;SDS011;19359;51.402;6.778;2023-01-01T11:40:16;3.25;;;1.63;;
7783;SDS011;19359;51.402;6.778;2023-01-01T11:42:45;2.33;;;1.05;;
7783;SDS011;19359;51.402;6.778;2023-01-01T11:45:15;7.35;;;1.77;;
7783;SDS011;19359;51.402;6.778;2023-01-01T11:47:49;4.20;;;1.30;;
7783;SDS011;19359;51.402;6.778;2023-01-01T11:50:21;1.77;;;1.30;;
7783;SDS011;19359;51.402;6.778;2023-01-01T11:52:54;3.03;;;1.38;;
7783;SDS011;19359;51.402;6.778;2023-01-01T11:55:26;1.90;;;0.77;;
7783;SDS011;19359;51.402;6.778;2023-01-01T11:58:02;5.75;;;1.00;;
7783;SDS011;19359;51.402;6.778;2023-01-01T12:00:37;4.70;;;0.90;;
7783;SDS011;19359;51.402;6.778;2023-01-01T12:03:08;7.60;;;1.30;;
7783;SDS011;19359;51.402;6.778;2023-01-01T12:05:44;8.82;;;1.45;;
7783;SDS011;19359;51.402;6.778;2023-01-01T12:08:15;2.03;;;1.15;;
7783;SDS011;19359;51.402;6.778;2023-01-01T12:10:49;3.63;;;1.05;;
7783;SDS011;19359;51.402;6.778;2023-01-01T12:13:21;5.25;;;0.98;;
7783;SDS011;19359;51.402;6.778;2023-01-01T12:15:53;3.50;;;0.95;;
7783;SDS011;19359;51.402;6.778;2023-01-01T12:18:26;4.28;;;0.88;;
7783;SDS011;19359;51.402;6.778;2023-01-01T12:20:59;3.78;;;1.13;;
7783;SDS011;19359;51.402;6.778;2023-01-01T12:23:30;4.78;;;1.30;;
7783;SDS011;19359;51.402;6.778;2023-01-01T12:25:59;5.05;;;1.10;;
7783;SDS011;19359;51.402;6.778;2023-01-01T12:28:38;2.97;;;1.20;;
7783;SDS011;19359;51.402;6.778;2023-01-01T12:31:17;5.05;;;1.10;;
7783;SDS011;19359;51.402;6.778;2023-01-01T12:33:54;5.75;;;1.52;;
7783;SDS011;19359;51.402;6.778;2023-01-01T12:36:32;3.65;;;0.98;;
7783;SDS011;19359;51.402;6.778;2023-01-01T12:42:19;1.40;;;0.82;;
7783;SDS011;19359;51.402;6.778;2023-01-01T12:45:01;7.57;;;1.25;;
7783;SDS011;19359;51.402;6.778;2023-01-01T12:47:41;5.28;;;1.20;;
7783;SDS011;19359;51.402;6.778;2023-01-01T12:50:15;3.25;;;1.05;;
7783;SDS011;19359;51.402;6.778;2023-01-01T12:52:51;4.10;;;1.00;;
7783;SDS011;19359;51.402;6.778;2023-01-01T12:58:20;2.63;;;0.90;;
7783;SDS011;19359;51.402;6.778;2023-01-01T13:00:52;4.55;;;1.48;;
7783;SDS011;19359;51.402;6.778;2023-01-01T13:03:25;5.28;;;0.82;;
7783;SDS011;19359;51.402;6.778;2023-01-01T13:05:56;3.60;;;1.50;;
7783;SDS011;19359;51.402;6.778;2023-01-01T13:08:26;9.73;;;1.30;;
7783;SDS011;19359;51.402;6.778;2023-01-01T13:10:53;3.90;;;1.00;;
7783;SDS011;19359;51.402;6.778;2023-01-01T13:13:23;3.60;;;1.08;;
7783;SDS011;19359;51.402;6.778;2023-01-01T13:15:52;2.05;;;0.70;;
7783;SDS011;19359;51.402;6.778;2023-01-01T13:18:28;4.13;;;0.90;;
7783;SDS011;19359;51.402;6.778;2023-01-01T13:20:59;5.53;;;1.05;;
7783;SDS011;19359;51.402;6.778;2023-01-01T13:23:39;6.07;;;1.02;;
7783;SDS011;19359;51.402;6.778;2023-01-01T13:37:42;4.45;;;0.60;;
7783;SDS011;19359;51.402;6.778;2023-01-01T13:43:29;4.47;;;1.00;;
7783;SDS011;19359;51.402;6.778;2023-01-01T13:45:56;7.80;;;1.02;;
7783;SDS011;19359;51.402;6.778;2023-01-01T13:48:32;3.03;;;1.00;;
7783;SDS011;19359;51.402;6.778;2023-01-01T13:51:16;1.08;;;0.57;;
7783;SDS011;19359;51.402;6.778;2023-01-01T13:54:06;5.32;;;1.45;;
7783;SDS011;19359;51.402;6.778;2023-01-01T13:56:46;4.53;;;1.08;;
7783;SDS011;19359;51.402;6.778;2023-01-01T13:59:32;7.32;;;0.90;;
7783;SDS011;19359;51.402;6.778;2023-01-01T14:02:18;2.35;;;1.38;;
7783;SDS011;19359;51.402;6.778;2023-01-01T14:04:50;3.40;;;0.93;;
7783;SDS011;19359;51.402;6.778;2023-01-01T14:07:24;5.20;;;1.17;;
7783;SDS011;19359;51.402;6.778;2023-01-01T14:10:16;3.42;;;1.00;;
7783;SDS011;19359;51.402;6.778;2023-01-01T14:12:48;2.90;;;1.10;;
7783;SDS011;19359;51.402;6.778;2023-01-01T14:15:18;3.40;;;0.95;;
7783;SDS011;19359;51.402;6.778;2023-01-01T14:17:50;3.72;;;0.90;;
7783;SDS011;19359;51.402;6.778;2023-01-01T14:20:17;5.60;;;0.98;;
7783;SDS011;19359;51.402;6.778;2023-01-01T14:22:49;2.67;;;1.02;;
7783;SDS011;19359;51.402;6.778;2023-01-01T14:25:17;4.30;;;1.08;;
7783;SDS011;19359;51.402;6.778;2023-01-01T14:27:51;3.42;;;0.90;;
7783;SDS011;19359;51.402;6.778;2023-01-01T14:30:19;8.25;;;0.98;;
7783;SDS011;19359;51.402;6.778;2023-01-01T14:32:47;8.85;;;0.90;;
7783;SDS011;19359;51.402;6.778;2023-01-01T14:35:21;4.72;;;1.27;;
7783;SDS011;19359;51.402;6.778;2023-01-01T14:37:49;6.53;;;1.33;;
7783;SDS011;19359;51.402;6.778;2023-01-01T14:40:17;10.20;;;1.08;;
7783;SDS011;19359;51.402;6.778;2023-01-01T14:42:51;3.05;;;1.05;;
7783;SDS011;19359;51.402;6.778;2023-01-01T14:45:26;7.63;;;1.20;;
7783;SDS011;19359;51.402;6.778;2023-01-01T14:47:54;7.35;;;0.90;;
7783;SDS011;19359;51.402;6.778;2023-01-01T14:50:23;2.92;;;1.35;;
7783;SDS011;19359;51.402;6.778;2023-01-01T14:52:55;2.03;;;1.08;;
7783;SDS011;19359;51.402;6.778;2023-01-01T14:55:29;5.00;;;1.33;;
7783;SDS011;19359;51.402;6.778;2023-01-01T14:57:59;4.50;;;1.20;;
7783;SDS011;19359;51.402;6.778;2023-01-01T15:00:27;2.28;;;0.82;;
7783;SDS011;19359;51.402;6.778;2023-01-01T15:03:02;7.60;;;1.05;;
7783;SDS011;19359;51.402;6.778;2023-01-01T15:05:31;5.15;;;1.30;;
7783;SDS011;19359;51.402;6.778;2023-01-01T15:08:01;2.85;;;1.02;;
7783;SDS011;19359;51.402;6.778;2023-01-01T15:10:31;8.45;;;1.55;;
7783;SDS011;19359;51.402;6.778;2023-01-01T15:12:59;4.25;;;1.17;;
7783;SDS011;19359;51.402;6.778;2023-01-01T15:15:34;1.95;;;1.55;;
7783;SDS011;19359;51.402;6.778;2023-01-01T15:18:02;3.13;;;1.08;;
7783;SDS011;19359;51.402;6.778;2023-01-01T15:20:29;5.18;;;1.40;;
7783;SDS011;19359;51.402;6.778;2023-01-01T15:22:57;2.78;;;2.10;;
7783;SDS011;19359;51.402;6.778;2023-01-01T15:25:26;3.53;;;1.83;;
7783;SDS011;19359;51.402;6.778;2023-01-01T15:27:54;4.78;;;1.10;;
7783;SDS011;19359;51.402;6.778;2023-01-01T15:30:22;1.42;;;1.33;;
7783;SDS011;19359;51.402;6.778;2023-01-01T15:32:51;4.85;;;1.33;;
7783;SDS011;19359;51.402;6.778;2023-01-01T15:35:20;4.90;;;0.80;;
7783;SDS011;19359;51.402;6.778;2023-01-01T15:37:53;5.43;;;1.23;;
7783;SDS011;19359;51.402;6.778;2023-01-01T15:40:32;5.13;;;1.60;;
7783;SDS011;19359;51.402;6.778;2023-01-01T15:43:13;2.65;;;0.90;;
7783;SDS011;19359;51.402;6.778;2023-01-01T15:45:53;5.55;;;1.27;;